createdAt,value
2017-06-22T00:00:34.209Z,4.40
2017-06-22T00:01:34.205Z,4.40
2017-06-22T00:02:34.207Z,4.40
2017-06-22T00:03:34.205Z,4.40
2017-06-22T00:04:34.158Z,4.70
2017-06-22T00:05:34.249Z,4.70
2017-06-22T00:06:34.148Z,4.70
2017-06-22T00:07:34.230Z,4.70
2017-06-22T00:08:34.242Z,4.70
2017-06-22T00:09:34.240Z,4.70
2017-06-22T00:10:34.163Z,4.70
2017-06-22T00:11:34.248Z,4.70
2017-06-22T00:12:34.237Z,4.70
2017-06-22T00:13:34.164Z,4.70
2017-06-22T00:14:34.241Z,4.20
2017-06-22T00:15:34.248Z,4.20
2017-06-22T00:16:34.254Z,4.20
2017-06-22T00:17:34.238Z,4.20
2017-06-22T00:18:34.161Z,4.20
2017-06-22T00:19:34.167Z,4.20
2017-06-22T00:20:34.158Z,4.20
2017-06-22T00:21:34.248Z,4.20
2017-06-22T00:22:34.232Z,4.20
2017-06-22T00:23:34.161Z,4.20
2017-06-22T00:24:34.246Z,4.20
2017-06-22T00:25:34.250Z,4.60
2017-06-22T00:26:34.253Z,4.60
2017-06-22T00:27:34.219Z,4.60
2017-06-22T00:28:34.173Z,4.60
2017-06-22T00:29:34.216Z,4.60
2017-06-22T00:30:34.167Z,4.60
2017-06-22T00:31:34.173Z,4.60
2017-06-22T00:32:34.246Z,4.60
2017-06-22T00:33:34.251Z,4.60
2017-06-22T00:34:34.249Z,4.60
2017-06-22T00:35:34.171Z,4.50
2017-06-22T00:36:34.174Z,4.50
2017-06-22T00:37:34.267Z,4.50
2017-06-22T00:38:34.262Z,4.50
2017-06-22T00:39:34.256Z,4.50
2017-06-22T00:40:34.255Z,4.50
2017-06-22T00:41:34.174Z,4.50
2017-06-22T00:42:34.223Z,4.50
2017-06-22T00:43:34.242Z,4.50
2017-06-22T00:44:34.257Z,4.50
2017-06-22T00:45:34.242Z,4.40
2017-06-22T00:46:34.181Z,4.40
2017-06-22T00:47:34.252Z,4.40
2017-06-22T00:48:34.268Z,4.40
2017-06-22T00:49:34.256Z,4.40
2017-06-22T00:50:34.222Z,4.40
2017-06-22T00:51:34.354Z,4.40
2017-06-22T00:52:34.184Z,4.40
2017-06-22T00:53:34.186Z,4.40
2017-06-22T00:54:34.177Z,4.40
2017-06-22T00:55:34.250Z,3.80
2017-06-22T00:56:34.252Z,3.80
2017-06-22T00:57:34.249Z,3.80
2017-06-22T00:58:34.249Z,3.80
2017-06-22T00:59:34.253Z,3.80
2017-06-22T01:00:34.252Z,3.80
2017-06-22T01:01:34.252Z,3.80
2017-06-22T01:02:34.250Z,3.80
2017-06-22T01:03:34.249Z,3.80
2017-06-22T01:04:34.254Z,3.80
2017-06-22T01:05:34.271Z,4.50
2017-06-22T01:06:34.190Z,4.50
2017-06-22T01:07:34.206Z,4.50
2017-06-22T01:08:34.265Z,4.50
2017-06-22T01:09:34.267Z,4.50
2017-06-22T01:10:34.280Z,4.50
2017-06-22T01:11:34.268Z,4.50
2017-06-22T01:12:34.286Z,4.50
2017-06-22T01:13:34.259Z,4.50
2017-06-22T01:14:34.284Z,4.50
2017-06-22T01:15:34.247Z,4.70
2017-06-22T01:16:34.282Z,4.70
2017-06-22T01:17:34.283Z,4.70
2017-06-22T01:18:34.249Z,4.70
2017-06-22T01:19:34.267Z,4.70
2017-06-22T01:20:34.285Z,4.70
2017-06-22T01:21:34.201Z,4.70
2017-06-22T01:22:34.250Z,4.70
2017-06-22T01:23:34.273Z,4.70
2017-06-22T01:24:34.267Z,4.70
2017-06-22T01:25:34.252Z,4.10
2017-06-22T01:26:34.215Z,4.10
2017-06-22T01:27:34.201Z,4.10
2017-06-22T01:28:34.258Z,4.10
2017-06-22T01:29:34.250Z,4.10
2017-06-22T01:30:34.206Z,4.10
2017-06-22T01:31:34.277Z,4.10
2017-06-22T01:32:34.203Z,4.10
2017-06-22T01:33:34.287Z,4.10
2017-06-22T01:34:34.252Z,4.10
2017-06-22T01:35:34.390Z,4.30
2017-06-22T01:36:34.276Z,4.30
2017-06-22T01:37:34.204Z,4.30
2017-06-22T01:38:34.287Z,4.30
2017-06-22T01:39:34.295Z,4.30
2017-06-22T01:40:34.206Z,4.30
2017-06-22T01:41:34.296Z,4.30
2017-06-22T01:42:34.481Z,4.30
2017-06-22T01:43:34.223Z,4.30
2017-06-22T01:44:34.279Z,4.30
2017-06-22T01:45:34.266Z,4.80
2017-06-22T01:46:34.276Z,4.80
2017-06-22T01:47:34.296Z,4.80
2017-06-22T01:48:34.260Z,4.80
2017-06-22T01:49:34.214Z,4.80
2017-06-22T01:50:34.300Z,4.80
2017-06-22T01:51:34.262Z,4.80
2017-06-22T01:52:34.259Z,4.80
2017-06-22T01:53:34.303Z,4.80
2017-06-22T01:54:34.304Z,4.80
2017-06-22T01:55:34.283Z,4.70
2017-06-22T01:56:34.282Z,4.70
2017-06-22T01:57:34.282Z,4.70
2017-06-22T01:58:34.213Z,4.70
2017-06-22T01:59:34.283Z,4.70
2017-06-22T02:00:34.284Z,4.70
2017-06-22T02:01:34.284Z,4.70
2017-06-22T02:02:34.298Z,4.70
2017-06-22T02:03:34.288Z,4.70
2017-06-22T02:04:34.300Z,4.70
2017-06-22T02:05:34.294Z,4.90
2017-06-22T02:06:34.286Z,4.90
2017-06-22T02:07:34.286Z,4.90
2017-06-22T02:08:34.288Z,4.90
2017-06-22T02:09:34.284Z,4.90
2017-06-22T02:10:34.292Z,4.90
2017-06-22T02:11:34.291Z,4.90
2017-06-22T02:12:34.203Z,4.90
2017-06-22T02:13:34.289Z,4.90
2017-06-22T02:14:34.290Z,4.90
2017-06-22T02:15:34.288Z,4.99
2017-06-22T02:16:34.291Z,4.99
2017-06-22T02:17:34.295Z,4.99
2017-06-22T02:18:34.290Z,4.99
2017-06-22T02:19:34.292Z,4.99
2017-06-22T02:20:34.376Z,4.99
2017-06-22T02:21:34.295Z,4.99
2017-06-22T02:22:34.296Z,4.99
2017-06-22T02:23:34.269Z,4.99
2017-06-22T02:24:34.293Z,4.99
2017-06-22T02:25:34.280Z,4.90
2017-06-22T02:26:34.304Z,4.90
2017-06-22T02:27:34.324Z,4.90
2017-06-22T02:28:34.311Z,4.90
2017-06-22T02:29:34.294Z,4.90
2017-06-22T02:30:34.288Z,4.90
2017-06-22T02:31:34.288Z,4.90
2017-06-22T02:32:34.324Z,4.90
2017-06-22T02:33:34.324Z,4.90
2017-06-22T02:34:34.243Z,4.90
2017-06-22T02:35:34.291Z,4.80
2017-06-22T02:36:34.302Z,4.80
2017-06-22T02:37:34.346Z,4.80
2017-06-22T02:38:34.391Z,4.80
2017-06-22T02:39:34.303Z,4.80
2017-06-22T02:40:34.317Z,4.80
2017-06-22T02:41:34.347Z,4.80
2017-06-22T02:42:34.323Z,4.80
2017-06-22T02:43:34.331Z,4.80
2017-06-22T02:44:34.289Z,4.80
2017-06-22T02:45:34.397Z,5.30
2017-06-22T02:46:34.296Z,5.30
2017-06-22T02:47:34.296Z,5.30
2017-06-22T02:48:34.302Z,5.30
2017-06-22T02:49:34.296Z,5.30
2017-06-22T02:50:34.298Z,5.30
2017-06-22T02:51:34.304Z,5.30
2017-06-22T02:52:34.301Z,5.30
2017-06-22T02:53:34.302Z,5.30
2017-06-22T02:54:34.301Z,5.30
2017-06-22T02:55:34.243Z,5.30
2017-06-22T02:56:34.334Z,5.30
2017-06-22T02:57:34.327Z,5.30
2017-06-22T02:58:34.303Z,5.30
2017-06-22T02:59:34.321Z,5.30
2017-06-22T03:00:34.334Z,5.30
2017-06-22T03:01:34.339Z,5.30
2017-06-22T03:02:34.338Z,5.30
2017-06-22T03:03:34.337Z,5.30
2017-06-22T03:04:34.298Z,5.30
2017-06-22T03:05:34.306Z,6.00
2017-06-22T03:06:34.305Z,6.00
2017-06-22T03:07:34.308Z,6.00
2017-06-22T03:08:34.308Z,6.00
2017-06-22T03:09:34.313Z,6.00
2017-06-22T03:10:34.312Z,6.00
2017-06-22T03:11:34.311Z,6.00
2017-06-22T03:12:34.310Z,6.00
2017-06-22T03:13:34.309Z,6.00
2017-06-22T03:14:34.311Z,6.00
2017-06-22T03:15:34.341Z,5.70
2017-06-22T03:16:34.341Z,5.70
2017-06-22T03:17:34.307Z,5.70
2017-06-22T03:18:34.278Z,5.70
2017-06-22T03:19:34.268Z,5.70
2017-06-22T03:20:34.311Z,5.70
2017-06-22T03:21:34.345Z,5.70
2017-06-22T03:22:34.326Z,5.70
2017-06-22T03:23:34.264Z,5.70
2017-06-22T03:24:34.346Z,5.70
2017-06-22T03:25:34.349Z,5.00
2017-06-22T03:26:34.354Z,5.00
2017-06-22T03:27:34.256Z,5.00
2017-06-22T03:28:34.300Z,5.00
2017-06-22T03:29:34.254Z,5.00
2017-06-22T03:30:34.356Z,5.00
2017-06-22T03:31:34.254Z,5.00
2017-06-22T03:32:34.291Z,5.00
2017-06-22T03:33:34.252Z,5.00
2017-06-22T03:34:34.252Z,5.00
2017-06-22T03:35:34.350Z,5.20
2017-06-22T03:36:34.347Z,5.20
2017-06-22T03:37:34.353Z,5.20
2017-06-22T03:38:34.458Z,5.20
2017-06-22T03:39:34.359Z,5.20
2017-06-22T03:40:34.349Z,5.20
2017-06-22T03:41:34.363Z,5.20
2017-06-22T03:42:34.367Z,5.20
2017-06-22T03:43:34.336Z,5.20
2017-06-22T03:44:34.359Z,5.20
2017-06-22T03:45:34.254Z,5.00
2017-06-22T03:46:34.256Z,5.00
2017-06-22T03:47:34.252Z,5.00
2017-06-22T03:48:34.255Z,5.00
2017-06-22T03:49:34.340Z,5.00
2017-06-22T03:50:34.249Z,5.00
2017-06-22T03:51:34.245Z,5.00
2017-06-22T03:52:34.222Z,5.00
2017-06-22T03:53:34.261Z,5.00
2017-06-22T03:54:34.301Z,5.00
2017-06-22T03:55:34.222Z,5.00
2017-06-22T03:56:34.258Z,5.30
2017-06-22T03:57:34.251Z,5.30
2017-06-22T03:58:34.232Z,5.30
2017-06-22T03:59:34.249Z,5.30
2017-06-22T04:00:34.361Z,5.30
2017-06-22T04:01:34.222Z,5.30
2017-06-22T04:02:34.260Z,5.30
2017-06-22T04:03:34.249Z,5.30
2017-06-22T04:04:34.364Z,5.30
2017-06-22T04:05:34.306Z,5.30
2017-06-22T04:06:34.282Z,5.20
2017-06-22T04:07:34.277Z,5.20
2017-06-22T04:08:34.348Z,5.20
2017-06-22T04:09:34.285Z,5.20
2017-06-22T04:10:34.371Z,5.20
2017-06-22T04:11:34.279Z,5.20
2017-06-22T04:12:34.372Z,5.20
2017-06-22T04:13:34.370Z,5.20
2017-06-22T04:14:34.382Z,5.20
2017-06-22T04:15:34.351Z,5.20
2017-06-22T04:16:34.356Z,5.50
2017-06-22T04:17:34.355Z,5.50
2017-06-22T04:18:34.357Z,5.50
2017-06-22T04:19:34.357Z,5.50
2017-06-22T04:20:34.359Z,5.50
2017-06-22T04:21:34.358Z,5.50
2017-06-22T04:22:34.383Z,5.50
2017-06-22T04:23:34.362Z,5.50
2017-06-22T04:24:34.359Z,5.50
2017-06-22T04:25:34.363Z,5.50
2017-06-22T04:26:34.346Z,6.80
2017-06-22T04:27:34.349Z,6.80
2017-06-22T04:28:34.351Z,6.80
2017-06-22T04:29:34.352Z,6.80
2017-06-22T04:30:34.350Z,6.80
2017-06-22T04:31:34.355Z,6.80
2017-06-22T04:32:34.356Z,6.80
2017-06-22T04:33:34.352Z,6.80
2017-06-22T04:34:34.354Z,6.80
2017-06-22T04:35:34.354Z,6.80
2017-06-22T04:36:34.389Z,6.20
2017-06-22T04:37:34.385Z,6.20
2017-06-22T04:38:34.389Z,6.20
2017-06-22T04:39:34.389Z,6.20
2017-06-22T04:40:34.393Z,6.20
2017-06-22T04:41:34.361Z,6.20
2017-06-22T04:42:34.347Z,6.20
2017-06-22T04:43:34.391Z,6.20
2017-06-22T04:44:34.368Z,6.20
2017-06-22T04:45:34.413Z,6.20
2017-06-22T04:46:34.379Z,6.20
2017-06-22T04:47:34.371Z,6.20
2017-06-22T04:48:34.374Z,6.20
2017-06-22T04:49:34.374Z,6.20
2017-06-22T04:50:34.379Z,6.20
2017-06-22T04:51:34.402Z,6.20
2017-06-22T04:52:34.377Z,6.20
2017-06-22T04:53:34.376Z,6.20
2017-06-22T04:54:34.380Z,6.20
2017-06-22T04:55:34.394Z,6.20
2017-06-22T04:56:34.404Z,6.20
2017-06-22T04:57:34.384Z,6.20
2017-06-22T04:58:34.313Z,6.20
2017-06-22T04:59:34.395Z,6.20
2017-06-22T05:00:34.318Z,6.20
2017-06-22T05:01:34.321Z,6.20
2017-06-22T05:02:34.324Z,6.20
2017-06-22T05:03:34.377Z,6.20
2017-06-22T05:04:34.386Z,6.20
2017-06-22T05:05:34.313Z,6.20
2017-06-22T05:06:34.388Z,6.60
2017-06-22T05:07:34.383Z,6.60
2017-06-22T05:08:34.387Z,6.60
2017-06-22T05:09:34.386Z,6.60
2017-06-22T05:10:34.385Z,6.60
2017-06-22T05:11:34.384Z,6.60
2017-06-22T05:12:34.387Z,6.60
2017-06-22T05:13:34.385Z,6.60
2017-06-22T05:14:34.387Z,6.60
2017-06-22T05:15:34.390Z,6.60
2017-06-22T05:16:34.304Z,6.00
2017-06-22T05:17:34.320Z,6.00
2017-06-22T05:18:34.317Z,6.00
2017-06-22T05:20:34.311Z,6.00
2017-06-22T05:21:34.309Z,6.00
2017-06-22T05:22:34.298Z,6.00
2017-06-22T05:23:34.304Z,6.00
2017-06-22T05:24:34.367Z,6.00
2017-06-22T05:25:34.346Z,6.00
2017-06-22T05:26:34.337Z,6.40
2017-06-22T05:27:34.414Z,6.40
2017-06-22T05:28:34.417Z,6.40
2017-06-22T05:29:34.422Z,6.40
2017-06-22T05:30:34.413Z,6.40
2017-06-22T05:31:34.328Z,6.40
2017-06-22T05:32:34.334Z,6.40
2017-06-22T05:33:34.419Z,6.40
2017-06-22T05:34:34.414Z,6.40
2017-06-22T05:35:34.402Z,6.40
2017-06-22T05:36:34.343Z,6.20
2017-06-22T05:37:34.336Z,6.20
2017-06-22T05:38:34.378Z,6.20
2017-06-22T05:39:34.339Z,6.20
2017-06-22T05:40:34.429Z,6.20
2017-06-22T05:41:34.441Z,6.20
2017-06-22T05:42:34.427Z,6.20
2017-06-22T05:43:34.337Z,6.20
2017-06-22T05:44:34.430Z,6.20
2017-06-22T05:45:34.341Z,6.20
2017-06-22T05:46:34.421Z,6.60
2017-06-22T05:47:34.426Z,6.60
2017-06-22T05:48:34.422Z,6.60
2017-06-22T05:49:34.342Z,6.60
2017-06-22T05:50:34.359Z,6.60
2017-06-22T05:51:34.345Z,6.60
2017-06-22T05:52:34.437Z,6.60
2017-06-22T05:53:34.387Z,6.60
2017-06-22T05:54:34.337Z,6.60
2017-06-22T05:55:34.430Z,6.60
2017-06-22T05:56:34.409Z,6.10
2017-06-22T05:57:34.413Z,6.10
2017-06-22T05:58:34.425Z,6.10
2017-06-22T05:59:34.413Z,6.10
2017-06-22T06:00:34.414Z,6.10
2017-06-22T06:01:34.416Z,6.10
2017-06-22T06:02:34.415Z,6.10
2017-06-22T06:03:34.417Z,6.10
2017-06-22T06:04:34.423Z,6.10
2017-06-22T06:05:34.417Z,6.10
2017-06-22T06:06:34.417Z,6.30
2017-06-22T06:07:34.417Z,6.30
2017-06-22T06:08:34.415Z,6.30
2017-06-22T06:09:34.419Z,6.30
2017-06-22T06:10:34.419Z,6.30
2017-06-22T06:11:34.418Z,6.30
2017-06-22T06:12:34.419Z,6.30
2017-06-22T06:13:34.421Z,6.30
2017-06-22T06:14:34.415Z,6.30
2017-06-22T06:15:34.422Z,6.30
2017-06-22T06:16:34.358Z,6.50
2017-06-22T06:17:34.400Z,6.50
2017-06-22T06:18:34.359Z,6.50
2017-06-22T06:19:34.447Z,6.50
2017-06-22T06:20:34.438Z,6.50
2017-06-22T06:21:34.421Z,6.50
2017-06-22T06:22:34.401Z,6.50
2017-06-22T06:23:34.448Z,6.50
2017-06-22T06:24:34.453Z,6.50
2017-06-22T06:25:34.354Z,6.50
2017-06-22T06:26:34.420Z,5.70
2017-06-22T06:27:34.359Z,5.70
2017-06-22T06:28:34.447Z,5.70
2017-06-22T06:29:34.435Z,5.70
2017-06-22T06:30:34.391Z,5.70
2017-06-22T06:31:34.453Z,5.70
2017-06-22T06:32:34.426Z,5.70
2017-06-22T06:33:34.409Z,5.70
2017-06-22T06:34:34.430Z,5.70
2017-06-22T06:35:34.459Z,5.70
2017-06-22T06:36:34.369Z,6.40
2017-06-22T06:37:34.499Z,6.40
2017-06-22T06:38:34.463Z,6.40
2017-06-22T06:39:34.460Z,6.40
2017-06-22T06:40:34.456Z,6.40
2017-06-22T06:41:34.457Z,6.40
2017-06-22T06:42:34.371Z,6.40
2017-06-22T06:43:34.448Z,6.40
2017-06-22T06:44:34.462Z,6.40
2017-06-22T06:45:34.457Z,6.40
2017-06-22T06:46:34.459Z,6.60
2017-06-22T06:47:34.459Z,6.60
2017-06-22T06:48:34.441Z,6.60
2017-06-22T06:49:34.380Z,6.60
2017-06-22T06:50:34.470Z,6.60
2017-06-22T06:51:34.422Z,6.60
2017-06-22T06:52:34.451Z,6.60
2017-06-22T06:53:34.380Z,6.60
2017-06-22T06:54:34.423Z,6.60
2017-06-22T06:55:34.467Z,6.60
2017-06-22T06:56:34.468Z,6.30
2017-06-22T06:57:34.378Z,6.30
2017-06-22T06:58:34.469Z,6.30
2017-06-22T06:59:34.473Z,6.30
2017-06-22T07:00:34.442Z,6.30
2017-06-22T07:01:34.386Z,6.30
2017-06-22T07:02:34.479Z,6.30
2017-06-22T07:03:34.474Z,6.30
2017-06-22T07:04:34.463Z,6.30
2017-06-22T07:05:34.444Z,6.30
2017-06-22T07:06:34.446Z,6.30
2017-06-22T07:07:34.429Z,6.30
2017-06-22T07:08:34.503Z,6.30
2017-06-22T07:09:34.468Z,6.30
2017-06-22T07:10:34.380Z,6.30
2017-06-22T07:11:34.479Z,6.30
2017-06-22T07:12:34.442Z,6.30
2017-06-22T07:13:34.428Z,6.30
2017-06-22T07:14:34.478Z,6.30
2017-06-22T07:15:34.471Z,6.30
2017-06-22T07:16:34.468Z,5.70
2017-06-22T07:17:34.426Z,5.70
2017-06-22T07:18:34.474Z,5.70
2017-06-22T07:19:34.449Z,5.70
2017-06-22T07:20:34.448Z,5.70
2017-06-22T07:22:34.481Z,5.70
2017-06-22T07:23:34.476Z,5.70
2017-06-22T07:24:34.392Z,5.70
2017-06-22T07:25:34.591Z,5.70
2017-06-22T07:26:34.454Z,5.90
2017-06-22T07:27:34.489Z,5.90
2017-06-22T07:28:34.437Z,5.90
2017-06-22T07:29:34.399Z,5.90
2017-06-22T07:30:34.481Z,5.90
2017-06-22T07:31:34.483Z,5.90
2017-06-22T07:32:34.487Z,5.90
2017-06-22T07:33:34.404Z,5.90
2017-06-22T07:34:34.476Z,5.90
2017-06-22T07:35:34.490Z,5.90
2017-06-22T07:36:34.472Z,5.80
2017-06-22T07:37:34.467Z,5.80
2017-06-22T07:38:34.466Z,5.80
2017-06-22T07:39:34.465Z,5.80
2017-06-22T07:40:34.473Z,5.80
2017-06-22T07:41:34.468Z,5.80
2017-06-22T07:42:34.469Z,5.80
2017-06-22T07:43:34.471Z,5.80
2017-06-22T07:44:34.466Z,5.80
2017-06-22T07:45:34.469Z,5.80
2017-06-22T07:46:34.469Z,6.99
2017-06-22T07:47:34.470Z,6.99
2017-06-22T07:48:34.470Z,6.99
2017-06-22T07:49:34.468Z,6.99
2017-06-22T07:50:34.501Z,6.99
2017-06-22T07:51:34.472Z,6.99
2017-06-22T07:52:34.472Z,6.99
2017-06-22T07:53:34.474Z,6.99
2017-06-22T07:54:34.474Z,6.99
2017-06-22T07:55:34.478Z,6.99
2017-06-22T07:56:34.503Z,5.60
2017-06-22T07:57:34.497Z,5.60
2017-06-22T07:58:34.496Z,5.60
2017-06-22T07:59:34.411Z,5.60
2017-06-22T08:00:34.413Z,5.60
2017-06-22T08:01:34.496Z,5.60
2017-06-22T08:02:34.456Z,5.60
2017-06-22T08:03:34.415Z,5.60
2017-06-22T08:04:34.495Z,5.60
2017-06-22T08:05:34.503Z,5.60
2017-06-22T08:06:34.480Z,5.80
2017-06-22T08:07:34.484Z,5.80
2017-06-22T08:08:34.481Z,5.80
2017-06-22T08:09:34.486Z,5.80
2017-06-22T08:10:34.480Z,5.80
2017-06-22T08:11:34.483Z,5.80
2017-06-22T08:12:34.484Z,5.80
2017-06-22T08:13:34.489Z,5.80
2017-06-22T08:14:34.564Z,5.80
2017-06-22T08:15:34.487Z,5.80
2017-06-22T08:16:34.481Z,5.80
2017-06-22T08:17:34.392Z,6.00
2017-06-22T08:18:34.398Z,6.00
2017-06-22T08:19:34.483Z,6.00
2017-06-22T08:20:34.395Z,6.00
2017-06-22T08:21:34.486Z,6.00
2017-06-22T08:22:34.400Z,6.00
2017-06-22T08:23:34.486Z,6.00
2017-06-22T08:24:34.487Z,6.00
2017-06-22T08:25:34.375Z,6.00
2017-06-22T08:26:34.395Z,6.00
2017-06-22T08:27:34.482Z,6.00
2017-06-22T08:28:34.482Z,6.00
2017-06-22T08:29:34.482Z,6.00
2017-06-22T08:30:34.479Z,6.00
2017-06-22T08:31:34.484Z,6.00
2017-06-22T08:32:34.487Z,6.00
2017-06-22T08:33:34.479Z,6.00
2017-06-22T08:34:34.491Z,6.00
2017-06-22T08:35:34.491Z,6.00
2017-06-22T08:36:34.490Z,6.00
2017-06-22T08:37:34.494Z,5.30
2017-06-22T08:38:34.518Z,5.30
2017-06-22T08:39:34.515Z,5.30
2017-06-22T08:40:34.515Z,5.30
2017-06-22T08:41:34.437Z,5.30
2017-06-22T08:42:34.515Z,5.30
2017-06-22T08:43:34.434Z,5.30
2017-06-22T08:44:34.440Z,5.30
2017-06-22T08:45:34.523Z,5.30
2017-06-22T08:46:34.432Z,5.30
2017-06-22T08:47:34.522Z,6.30
2017-06-22T08:48:34.508Z,6.30
2017-06-22T08:49:34.506Z,6.30
2017-06-22T08:50:34.505Z,6.30
2017-06-22T08:51:34.505Z,6.30
2017-06-22T08:52:34.506Z,6.30
2017-06-22T08:53:34.508Z,6.30
2017-06-22T08:54:34.510Z,6.30
2017-06-22T08:55:34.433Z,6.30
2017-06-22T08:56:34.511Z,6.30
2017-06-22T08:57:34.391Z,6.00
2017-06-22T08:58:34.430Z,6.00
2017-06-22T08:59:34.460Z,6.00
2017-06-22T09:00:34.417Z,6.00
2017-06-22T09:01:34.456Z,6.00
2017-06-22T09:02:34.467Z,6.00
2017-06-22T09:03:34.454Z,6.00
2017-06-22T09:04:34.413Z,6.00
2017-06-22T09:05:34.419Z,6.00
2017-06-22T09:06:34.519Z,6.00
2017-06-22T09:07:34.535Z,6.60
2017-06-22T09:08:34.444Z,6.60
2017-06-22T09:09:34.457Z,6.60
2017-06-22T09:10:34.453Z,6.60
2017-06-22T09:11:34.534Z,6.60
2017-06-22T09:12:34.533Z,6.60
2017-06-22T09:13:34.451Z,6.60
2017-06-22T09:14:34.460Z,6.60
2017-06-22T09:15:34.496Z,6.60
2017-06-22T09:16:34.451Z,6.60
2017-06-22T09:17:34.438Z,6.80
2017-06-22T09:18:34.521Z,6.80
2017-06-22T09:19:34.525Z,6.80
2017-06-22T09:20:34.526Z,6.80
2017-06-22T09:21:34.525Z,6.80
2017-06-22T09:22:34.525Z,6.80
2017-06-22T09:23:34.527Z,6.80
2017-06-22T09:24:34.531Z,6.80
2017-06-22T09:25:34.531Z,6.80
2017-06-22T09:26:34.529Z,6.80
2017-06-22T09:27:34.555Z,4.70
2017-06-22T09:28:34.547Z,4.70
2017-06-22T09:29:34.549Z,4.70
2017-06-22T09:30:34.547Z,4.70
2017-06-22T09:31:34.550Z,4.70
2017-06-22T09:32:34.549Z,4.70
2017-06-22T09:33:34.652Z,4.70
2017-06-22T09:34:34.550Z,4.70
2017-06-22T09:35:34.509Z,4.70
2017-06-22T09:36:34.471Z,4.70
2017-06-22T09:37:34.467Z,6.20
2017-06-22T09:38:34.558Z,6.20
2017-06-22T09:39:34.471Z,6.20
2017-06-22T09:40:34.553Z,6.20
2017-06-22T09:41:34.559Z,6.20
2017-06-22T09:42:34.469Z,6.20
2017-06-22T09:43:34.476Z,6.20
2017-06-22T09:45:34.558Z,6.20
2017-06-22T09:46:34.475Z,6.20
2017-06-22T09:47:34.560Z,5.40
2017-06-22T09:48:34.480Z,5.40
2017-06-22T09:49:34.473Z,5.40
2017-06-22T09:50:34.479Z,5.40
2017-06-22T09:51:34.538Z,5.40
2017-06-22T09:52:34.558Z,5.40
2017-06-22T09:53:34.570Z,5.40
2017-06-22T09:54:34.536Z,5.40
2017-06-22T09:55:34.576Z,5.40
2017-06-22T09:56:34.538Z,5.40
2017-06-22T09:57:34.534Z,5.70
2017-06-22T09:58:34.550Z,5.70
2017-06-22T09:59:34.539Z,5.70
2017-06-22T10:00:34.530Z,5.70
2017-06-22T10:01:34.533Z,5.70
2017-06-22T10:02:34.533Z,5.70
2017-06-22T10:03:34.532Z,5.70
2017-06-22T10:04:34.537Z,5.70
2017-06-22T10:05:34.486Z,5.70
2017-06-22T10:06:34.537Z,5.70
2017-06-22T10:07:34.488Z,6.90
2017-06-22T10:09:34.576Z,6.90
2017-06-22T10:10:34.512Z,6.90
2017-06-22T10:11:34.570Z,6.90
2017-06-22T10:12:34.566Z,6.90
2017-06-22T10:13:34.560Z,6.90
2017-06-22T10:14:34.480Z,6.90
2017-06-22T10:15:34.495Z,6.90
2017-06-22T10:16:34.490Z,6.90
2017-06-22T10:17:34.543Z,6.00
2017-06-22T10:18:34.571Z,6.00
2017-06-22T10:19:34.542Z,6.00
2017-06-22T10:20:34.544Z,6.00
2017-06-22T10:21:34.548Z,6.00
2017-06-22T10:22:34.545Z,6.00
2017-06-22T10:23:34.548Z,6.00
2017-06-22T10:24:34.545Z,6.00
2017-06-22T10:25:34.552Z,6.00
2017-06-22T10:26:34.548Z,6.00
2017-06-22T10:27:34.547Z,5.60
2017-06-22T10:28:34.652Z,5.60
2017-06-22T10:29:34.549Z,5.60
2017-06-22T10:30:34.550Z,5.60
2017-06-22T10:31:34.549Z,5.60
2017-06-22T10:32:34.553Z,5.60
2017-06-22T10:33:34.552Z,5.60
2017-06-22T10:34:34.554Z,5.60
2017-06-22T10:35:34.557Z,5.60
2017-06-22T10:36:34.555Z,5.60
2017-06-22T10:37:34.529Z,6.00
2017-06-22T10:38:34.538Z,6.00
2017-06-22T10:39:34.481Z,6.00
2017-06-22T10:40:34.578Z,6.00
2017-06-22T10:41:34.546Z,6.00
2017-06-22T10:42:34.588Z,6.00
2017-06-22T10:43:34.479Z,6.00
2017-06-22T10:44:34.534Z,6.00
2017-06-22T10:45:34.483Z,6.00
2017-06-22T10:46:34.534Z,6.00
2017-06-22T10:47:34.537Z,6.10
2017-06-22T10:48:34.486Z,6.10
2017-06-22T10:49:34.495Z,6.10
2017-06-22T10:50:34.577Z,6.10
2017-06-22T10:51:34.493Z,6.10
2017-06-22T10:52:34.550Z,6.10
2017-06-22T10:53:34.538Z,6.10
2017-06-22T10:54:34.587Z,6.10
2017-06-22T10:55:34.732Z,6.10
2017-06-22T10:56:34.545Z,6.10
2017-06-22T10:57:34.667Z,6.00
2017-06-22T10:58:34.568Z,6.00
2017-06-22T10:59:34.567Z,6.00
2017-06-22T11:00:34.566Z,6.00
2017-06-22T11:01:34.566Z,6.00
2017-06-22T11:02:34.565Z,6.00
2017-06-22T11:03:34.565Z,6.00
2017-06-22T11:04:34.571Z,6.00
2017-06-22T11:05:34.577Z,6.00
2017-06-22T11:06:34.568Z,6.00
2017-06-22T11:07:34.585Z,5.80
2017-06-22T11:08:34.582Z,5.80
2017-06-22T11:09:34.585Z,5.80
2017-06-22T11:10:34.581Z,5.80
2017-06-22T11:11:34.593Z,5.80
2017-06-22T11:12:34.579Z,5.80
2017-06-22T11:13:34.584Z,5.80
2017-06-22T11:14:34.583Z,5.80
2017-06-22T11:15:34.592Z,5.80
2017-06-22T11:16:34.591Z,5.80
2017-06-22T11:17:34.611Z,6.80
2017-06-22T11:18:34.531Z,6.80
2017-06-22T11:19:34.591Z,6.80
2017-06-22T11:20:34.613Z,6.80
2017-06-22T11:21:34.528Z,6.80
2017-06-22T11:22:34.616Z,6.80
2017-06-22T11:23:34.577Z,6.80
2017-06-22T11:24:34.643Z,6.80
2017-06-22T11:25:34.522Z,6.80
2017-06-22T11:26:34.552Z,6.80
2017-06-22T11:27:34.591Z,8.00
2017-06-22T11:28:34.595Z,8.00
2017-06-22T11:29:34.608Z,8.00
2017-06-22T11:30:34.596Z,8.00
2017-06-22T11:31:34.598Z,8.00
2017-06-22T11:32:34.595Z,8.00
2017-06-22T11:33:34.596Z,8.00
2017-06-22T11:34:34.597Z,8.00
2017-06-22T11:35:34.512Z,8.00
2017-06-22T11:36:34.596Z,8.00
2017-06-22T11:37:34.599Z,8.00
2017-06-22T11:38:34.602Z,7.60
2017-06-22T11:39:34.598Z,7.60
2017-06-22T11:40:34.629Z,7.60
2017-06-22T11:41:34.601Z,7.60
2017-06-22T11:42:34.599Z,7.60
2017-06-22T11:43:34.520Z,7.60
2017-06-22T11:44:34.600Z,7.60
2017-06-22T11:45:34.602Z,7.60
2017-06-22T11:46:34.602Z,7.60
2017-06-22T11:47:34.606Z,7.60
2017-06-22T11:48:34.601Z,7.00
2017-06-22T11:49:34.506Z,7.00
2017-06-22T11:50:34.491Z,7.00
2017-06-22T11:51:34.619Z,7.00
2017-06-22T11:52:34.490Z,7.00
2017-06-22T11:53:34.523Z,7.00
2017-06-22T11:54:34.568Z,7.00
2017-06-22T11:55:34.550Z,7.00
2017-06-22T11:56:34.571Z,7.00
2017-06-22T11:57:34.554Z,7.00
2017-06-22T11:58:34.495Z,7.30
2017-06-22T11:59:34.610Z,7.30
2017-06-22T12:00:34.567Z,7.30
2017-06-22T12:01:34.494Z,7.30
2017-06-22T12:02:34.627Z,7.30
2017-06-22T12:03:34.536Z,7.30
2017-06-22T12:04:34.538Z,7.30
2017-06-22T12:05:34.519Z,7.30
2017-06-22T12:06:34.569Z,7.30
2017-06-22T12:07:34.672Z,7.30
2017-06-22T12:08:34.554Z,7.60
2017-06-22T12:09:34.636Z,7.60
2017-06-22T12:10:34.557Z,7.60
2017-06-22T12:11:34.628Z,7.60
2017-06-22T12:12:34.614Z,7.60
2017-06-22T12:13:34.641Z,7.60
2017-06-22T12:14:34.636Z,7.60
2017-06-22T12:15:34.633Z,7.60
2017-06-22T12:16:34.557Z,7.60
2017-06-22T12:17:34.647Z,7.60
2017-06-22T12:18:34.610Z,7.20
2017-06-22T12:19:34.609Z,7.20
2017-06-22T12:20:34.610Z,7.20
2017-06-22T12:21:34.612Z,7.20
2017-06-22T12:22:34.610Z,7.20
2017-06-22T12:23:34.612Z,7.20
2017-06-22T12:24:34.612Z,7.20
2017-06-22T12:25:34.611Z,7.20
2017-06-22T12:26:34.611Z,7.20
2017-06-22T12:27:34.615Z,7.20
2017-06-22T12:28:34.614Z,8.00
2017-06-22T12:29:34.616Z,8.00
2017-06-22T12:30:34.614Z,8.00
2017-06-22T12:31:34.617Z,8.00
2017-06-22T12:32:34.617Z,8.00
2017-06-22T12:33:34.612Z,8.00
2017-06-22T12:34:34.619Z,8.00
2017-06-22T12:35:34.617Z,8.00
2017-06-22T12:36:34.621Z,8.00
2017-06-22T12:37:34.622Z,8.00
2017-06-22T12:38:34.635Z,8.00
2017-06-22T12:39:34.630Z,8.00
2017-06-22T12:40:34.630Z,8.00
2017-06-22T12:41:34.635Z,8.00
2017-06-22T12:42:34.636Z,8.00
2017-06-22T12:43:34.636Z,8.00
2017-06-22T12:44:34.559Z,8.00
2017-06-22T12:45:34.634Z,8.00
2017-06-22T12:46:34.636Z,8.00
2017-06-22T12:47:34.639Z,8.00
2017-06-22T12:48:34.626Z,7.30
2017-06-22T12:49:34.624Z,7.30
2017-06-22T12:50:34.625Z,7.30
2017-06-22T12:51:34.633Z,7.30
2017-06-22T12:52:34.727Z,7.30
2017-06-22T12:53:34.677Z,7.30
2017-06-22T12:54:34.631Z,7.30
2017-06-22T12:55:34.629Z,7.30
2017-06-22T12:56:34.628Z,7.30
2017-06-22T12:57:34.636Z,7.30
2017-06-22T12:58:34.660Z,7.30
2017-06-22T12:59:34.659Z,7.30
2017-06-22T13:00:34.666Z,7.30
2017-06-22T13:02:34.625Z,7.30
2017-06-22T13:03:34.600Z,7.30
2017-06-22T13:04:34.671Z,7.30
2017-06-22T13:05:34.626Z,7.30
2017-06-22T13:06:34.667Z,7.30
2017-06-22T13:07:34.585Z,7.30
2017-06-22T13:08:34.629Z,7.70
2017-06-22T13:09:34.665Z,7.70
2017-06-22T13:10:34.664Z,7.70
2017-06-22T13:11:34.663Z,7.70
2017-06-22T13:12:34.671Z,7.70
2017-06-22T13:13:34.672Z,7.70
2017-06-22T13:14:34.669Z,7.70
2017-06-22T13:15:34.676Z,7.70
2017-06-22T13:16:34.668Z,7.70
2017-06-22T13:17:34.588Z,7.70
2017-06-22T13:18:34.641Z,9.10
2017-06-22T13:19:34.643Z,9.10
2017-06-22T13:20:34.645Z,9.10
2017-06-22T13:21:34.647Z,9.10
2017-06-22T13:22:34.642Z,9.10
2017-06-22T13:23:34.651Z,9.10